Time;durP1;ratioP1;P1;durP2;ratioP2;P2;SDS_P1;SDS_P2;PMS_P1;PMS_P2;Temp;Humidity;BMP_temperature;BMP_pressure;BME280_temperature;BME280_humidity;BME280_pressure;Samples;Min_cycle;Max_cycle;Signal;HPM_P1;HPM_P2
2023/12/20 00:00:13;;;;;;;15.07;12.07;;;;;;;7.48;100.00;100405.91;7391593;19;20378;-68
2023/12/20 00:02:40;;;;;;;15.25;11.32;;;;;;;7.48;100.00;100405.06;7388156;19;20356;-68
2023/12/20 00:05:07;;;;;;;12.73;11.10;;;;;;;7.47;100.00;100393.69;7387736;19;20369;-68
2023/12/20 00:07:34;;;;;;;13.13;10.50;;;;;;;7.44;100.00;100415.16;7383316;19;20978;-68
2023/12/20 00:10:01;;;;;;;10.95;9.52;;;;;;;7.31;100.00;100412.97;7386846;19;20414;-69
2023/12/20 00:12:27;;;;;;;12.55;10.10;;;;;;;7.30;100.00;100406.03;7392582;19;20365;-68
2023/12/20 00:14:54;;;;;;;12.98;10.55;;;;;;;7.31;100.00;100405.06;7393462;19;20356;-68
2023/12/20 00:17:21;;;;;;;14.65;10.48;;;;;;;7.28;100.00;100405.34;7390728;19;20472;-68
2023/12/20 00:19:47;;;;;;;12.70;9.38;;;;;;;7.22;100.00;100402.53;7393673;19;20748;-67
2023/12/20 00:22:14;;;;;;;12.70;9.37;;;;;;;7.18;100.00;100409.94;7394141;19;20424;-68
2023/12/20 00:24:41;;;;;;;12.38;9.10;;;;;;;7.17;100.00;100405.66;7392789;19;20412;-68
2023/12/20 00:27:08;;;;;;;11.38;8.70;;;;;;;7.12;100.00;100418.50;7390862;19;20337;-68
2023/12/20 00:29:34;;;;;;;14.30;9.23;;;;;;;7.10;100.00;100417.84;7394941;19;20381;-68
2023/12/20 00:32:01;;;;;;;11.57;8.17;;;;;;;7.02;100.00;100420.44;7392335;19;20364;-68
2023/12/20 00:34:28;;;;;;;13.68;8.63;;;;;;;6.98;100.00;100433.13;7392608;19;20333;-68
2023/12/20 00:36:54;;;;;;;15.10;8.80;;;;;;;6.98;100.00;100429.66;7391118;19;20889;-68
2023/12/20 00:39:21;;;;;;;18.17;9.35;;;;;;;6.90;100.00;100441.81;7391887;19;20368;-68
2023/12/20 00:41:48;;;;;;;13.37;7.60;;;;;;;6.85;100.00;100430.09;7389617;19;20340;-68
2023/12/20 00:44:14;;;;;;;12.50;7.28;;;;;;;6.84;100.00;100439.81;7392900;19;20357;-68
2023/12/20 00:46:41;;;;;;;14.65;8.23;;;;;;;6.82;100.00;100436.50;7391580;19;20377;-67
2023/12/20 00:49:08;;;;;;;13.90;7.95;;;;;;;6.82;100.00;100433.88;7391730;19;20737;-68
2023/12/20 00:51:34;;;;;;;11.98;7.50;;;;;;;6.80;100.00;100441.09;7391164;19;20356;-68
2023/12/20 00:54:02;;;;;;;11.90;6.57;;;;;;;6.70;100.00;100450.94;7391538;19;20360;-68
2023/12/20 00:56:28;;;;;;;14.63;6.82;;;;;;;6.74;100.00;100437.28;7390119;19;20349;-67
2023/12/20 00:58:55;;;;;;;16.27;6.63;;;;;;;6.76;100.00;100437.13;7390502;19;20377;-68
2023/12/20 01:01:22;;;;;;;13.05;6.45;;;;;;;6.73;100.00;100437.44;7390403;19;20678;-67
2023/12/20 01:03:51;;;;;;;12.90;6.20;;;;;;;6.72;100.00;100435.78;7390903;19;20376;-68
2023/12/20 01:06:18;;;;;;;14.15;6.85;;;;;;;6.76;100.00;100426.59;7393572;19;20397;-67
2023/12/20 01:08:44;;;;;;;14.68;6.35;;;;;;;6.72;100.00;100435.78;7405576;19;20358;-67
2023/12/20 01:11:11;;;;;;;13.95;5.85;;;;;;;6.66;100.00;100425.88;7406034;19;20359;-67
2023/12/20 01:13:38;;;;;;;12.87;6.20;;;;;;;6.68;100.00;100413.34;7405508;19;20357;-68
2023/12/20 01:16:05;;;;;;;13.20;5.90;;;;;;;6.60;100.00;100423.84;7405913;19;20364;-67
2023/12/20 01:18:32;;;;;;;16.00;5.60;;;;;;;6.59;100.00;100430.09;7402618;19;20341;-67
2023/12/20 01:21:03;;;;;;;15.52;5.53;;;;;;;6.58;100.00;100429.28;7405096;19;20396;-67
2023/12/20 01:23:33;;;;;;;14.57;5.07;;;;;;;6.56;100.00;100420.69;7400072;19;21076;-67
2023/12/20 01:26:00;;;;;;;14.27;5.68;;;;;;;6.53;100.00;100421.84;7405742;19;20332;-66
2023/12/20 01:28:26;;;;;;;15.77;5.28;;;;;;;6.50;100.00;100411.63;7404736;19;20368;-66
2023/12/20 01:30:53;;;;;;;16.40;4.90;;;;;;;6.50;100.00;100422.16;7404242;19;20400;-66
2023/12/20 01:33:20;;;;;;;14.23;4.50;;;;;;;6.46;100.00;100428.72;7404566;19;20368;-66
2023/12/20 01:35:47;;;;;;;13.00;4.55;;;;;;;6.48;100.00;100421.47;7404675;19;20742;-66
2023/12/20 01:38:13;;;;;;;12.13;4.45;;;;;;;6.46;100.00;100425.22;7403190;19;20359;-66
2023/12/20 01:40:40;;;;;;;14.15;4.55;;;;;;;6.47;100.00;100426.91;7405853;19;20366;-66
2023/12/20 01:43:08;;;;;;;12.77;4.03;;;;;;;6.43;100.00;100431.66;7403941;19;20359;-66
2023/12/20 01:45:35;;;;;;;12.98;3.97;;;;;;;6.47;100.00;100437.44;7402065;19;20369;-66
2023/12/20 01:48:04;;;;;;;11.60;3.60;;;;;;;6.46;100.00;100444.53;7403329;19;20397;-66
2023/12/20 01:50:34;;;;;;;11.57;3.85;;;;;;;6.43;100.00;100447.44;7405564;19;20353;-66
2023/12/20 01:53:03;;;;;;;13.93;4.38;;;;;;;6.45;100.00;100434.94;7405396;19;20667;-66
2023/12/20 01:55:32;;;;;;;12.23;3.70;;;;;;;6.46;100.00;100431.34;7403582;19;20368;-66
2023/12/20 01:57:59;;;;;;;13.17;3.70;;;;;;;6.40;100.00;100431.97;7404138;19;20392;-66
2023/12/20 02:00:30;;;;;;;11.13;3.30;;;;;;;6.36;100.00;100430.63;7404975;19;20708;-65
2023/12/20 02:03:00;;;;;;;11.88;3.88;;;;;;;6.32;100.00;100442.44;7403261;19;20368;-66
2023/12/20 02:05:29;;;;;;;11.25;3.80;;;;;;;6.28;100.00;100439.28;7403627;19;20479;-66
2023/12/20 02:07:56;;;;;;;12.23;3.40;;;;;;;6.25;100.00;100439.59;7401752;19;20365;-66
2023/12/20 02:10:24;;;;;;;9.23;3.10;;;;;;;6.24;100.00;100442.38;7403572;19;20432;-65
2023/12/20 02:12:51;;;;;;;12.90;3.58;;;;;;;6.21;100.00;100446.16;7405099;19;20352;-66
2023/12/20 02:15:18;;;;;;;13.43;3.40;;;;;;;6.16;100.00;100439.66;7404007;19;20347;-66
2023/12/20 02:17:46;;;;;;;11.90;3.45;;;;;;;6.09;100.00;100450.81;7395356;19;20357;-66
2023/12/20 02:20:13;;;;;;;14.82;3.42;;;;;;;6.12;100.00;100440.00;7395614;19;20392;-66
2023/12/20 02:22:40;;;;;;;13.82;3.70;;;;;;;6.11;100.00;100435.69;7395750;19;20802;-66
2023/12/20 02:25:07;;;;;;;12.80;3.30;;;;;;;6.10;100.00;100422.69;7397821;19;20353;-66
2023/12/20 02:27:35;;;;;;;11.18;3.05;;;;;;;6.09;100.00;100421.84;7395286;19;20349;-65
2023/12/20 02:30:02;;;;;;;11.65;3.00;;;;;;;6.05;100.00;100402.06;7396959;19;20343;-66
2023/12/20 02:32:30;;;;;;;14.20;4.07;;;;;;;6.07;100.00;100402.72;7397196;19;20364;-65
2023/12/20 02:34:58;;;;;;;14.60;3.58;;;;;;;6.04;100.00;100396.97;7397275;19;20893;-66
2023/12/20 02:37:24;;;;;;;14.45;3.80;;;;;;;6.05;100.00;100407.31;7392492;19;20439;-66
2023/12/20 02:39:51;;;;;;;17.02;3.70;;;;;;;6.06;100.00;100402.91;7396026;19;20365;-66
2023/12/20 02:42:18;;;;;;;11.48;3.42;;;;;;;6.09;100.00;100413.13;7396261;19;20706;-66
2023/12/20 02:44:45;;;;;;;15.35;3.80;;;;;;;6.06;100.00;100414.25;7396493;19;20369;-65
2023/12/20 02:47:11;;;;;;;15.10;3.40;;;;;;;6.10;100.00;100414.78;7391984;19;20361;-66
2023/12/20 02:49:38;;;;;;;10.27;3.58;;;;;;;6.07;100.00;100405.38;7395171;19;20386;-66
2023/12/20 02:52:05;;;;;;;11.10;3.50;;;;;;;6.03;100.00;100408.47;7395461;19;20400;-66
2023/12/20 02:54:31;;;;;;;13.07;3.47;;;;;;;6.00;100.00;100406.16;7395908;19;20368;-66
2023/12/20 02:56:58;;;;;;;13.48;3.88;;;;;;;5.93;100.00;100395.38;7392817;19;20360;-66
2023/12/20 02:59:24;;;;;;;14.68;3.90;;;;;;;5.90;100.00;100403.56;7392903;19;20364;-65
2023/12/20 03:01:51;;;;;;;13.32;3.95;;;;;;;5.90;100.00;100399.09;7393185;19;20529;-66
2023/12/20 03:04:18;;;;;;;16.60;4.00;;;;;;;5.89;100.00;100396.66;7396100;19;20364;-66
2023/12/20 03:06:45;;;;;;;14.15;4.28;;;;;;;5.86;100.00;100389.03;7392803;19;20371;-66
2023/12/20 03:09:12;;;;;;;14.30;3.83;;;;;;;5.84;100.00;100393.63;7395764;19;20357;-65
2023/12/20 03:11:38;;;;;;;15.65;4.10;;;;;;;5.82;100.00;100395.59;7393874;19;20467;-65
2023/12/20 03:14:05;;;;;;;12.70;3.97;;;;;;;5.81;100.00;100399.22;7394800;19;20348;-65
2023/12/20 03:16:32;;;;;;;10.57;3.30;;;;;;;5.77;100.00;100382.06;7392820;19;20356;-65
2023/12/20 03:19:02;;;;;;;11.33;3.57;;;;;;;5.75;100.00;100373.50;7393659;19;20357;-65
2023/12/20 03:21:29;;;;;;;11.18;3.63;;;;;;;5.72;100.00;100370.19;7395038;19;20452;-65
2023/12/20 03:23:55;;;;;;;12.13;3.55;;;;;;;5.71;100.00;100379.03;7394350;19;20841;-65
2023/12/20 03:26:22;;;;;;;13.18;3.22;;;;;;;5.66;100.00;100381.31;7394696;19;20341;-65
2023/12/20 03:28:49;;;;;;;10.93;3.35;;;;;;;5.68;100.00;100374.09;7395122;19;20364;-65
2023/12/20 03:31:16;;;;;;;13.80;3.10;;;;;;;5.67;100.00;100363.72;7390381;19;20361;-65
2023/12/20 03:33:43;;;;;;;14.77;3.20;;;;;;;5.65;100.00;100358.63;7394469;19;20349;-65
2023/12/20 03:36:09;;;;;;;11.50;2.83;;;;;;;5.62;100.00;100360.72;7393730;19;20340;-65
2023/12/20 03:38:36;;;;;;;12.35;2.97;;;;;;;5.63;100.00;100336.03;7394497;19;20377;-65
2023/12/20 03:41:04;;;;;;;9.32;2.45;;;;;;;5.64;100.00;100341.16;7394391;19;20349;-65
2023/12/20 03:43:31;;;;;;;9.82;2.60;;;;;;;5.60;100.00;100355.59;7391970;19;20348;-65
2023/12/20 03:45:58;;;;;;;7.93;2.40;;;;;;;5.60;100.00;100345.06;7393785;19;20640;-65
2023/12/20 03:48:25;;;;;;;11.50;2.70;;;;;;;5.61;100.00;100330.94;7390852;19;20365;-65
2023/12/20 03:50:52;;;;;;;10.48;2.58;;;;;;;5.61;100.00;100336.22;7394612;19;20349;-64
2023/12/20 03:53:18;;;;;;;12.50;2.65;;;;;;;5.60;100.00;100334.53;7393360;19;20396;-65
2023/12/20 03:55:45;;;;;;;11.10;2.50;;;;;;;5.60;100.00;100345.06;7393281;19;20361;-65
2023/12/20 03:58:12;;;;;;;11.80;3.00;;;;;;;5.60;100.00;100341.63;7392667;19;20332;-64
2023/12/20 04:00:39;;;;;;;11.63;2.85;;;;;;;5.58;100.00;100339.13;7393013;19;20360;-64
2023/12/20 04:03:05;;;;;;;13.35;2.80;;;;;;;5.54;100.00;100336.97;7393208;19;20367;-65
2023/12/20 04:05:32;;;;;;;9.52;2.13;;;;;;;5.54;100.00;100337.78;7393397;19;20374;-64
2023/12/20 04:08:01;;;;;;;12.25;2.47;;;;;;;5.54;100.00;100334.31;7389759;19;20352;-64
2023/12/20 04:10:28;;;;;;;10.30;2.40;;;;;;;5.53;100.00;100330.88;7393950;19;20745;-64
2023/12/20 04:12:55;;;;;;;12.82;2.78;;;;;;;5.52;100.00;100337.09;7392985;19;20369;-65
2023/12/20 04:15:21;;;;;;;12.05;2.70;;;;;;;5.54;100.00;100337.78;7393777;19;20356;-65
2023/12/20 04:17:48;;;;;;;13.43;2.70;;;;;;;5.54;100.00;100335.16;7390799;19;20377;-65
2023/12/20 04:20:15;;;;;;;11.97;2.87;;;;;;;5.61;100.00;100344.09;7393701;19;20344;-64
2023/12/20 04:22:42;;;;;;;10.63;2.58;;;;;;;5.63;100.00;100339.53;7392929;19;20380;-64
2023/12/20 04:25:09;;;;;;;10.68;2.75;;;;;;;5.69;100.00;100338.06;7392647;19;20360;-64
2023/12/20 04:27:36;;;;;;;8.10;2.35;;;;;;;5.69;100.00;100344.16;7391136;19;20368;-64
2023/12/20 04:30:03;;;;;;;13.27;3.25;;;;;;;5.77;100.00;100329.44;7392985;19;20887;-65
2023/12/20 04:32:31;;;;;;;14.43;3.08;;;;;;;5.80;99.85;100324.69;7389278;19;20377;-64
2023/12/20 04:34:58;;;;;;;12.38;2.72;;;;;;;5.79;99.65;100345.88;7383915;19;20356;-64
2023/12/20 04:37:25;;;;;;;12.88;3.20;;;;;;;5.81;99.35;100349.19;7390737;19;20678;-65
2023/12/20 04:39:51;;;;;;;14.13;3.35;;;;;;;5.84;99.27;100319.91;7393371;19;20344;-64
2023/12/20 04:42:18;;;;;;;10.75;2.97;;;;;;;5.88;98.91;100344.97;7391448;19;20356;-64
2023/12/20 04:44:45;;;;;;;11.77;3.00;;;;;;;5.91;98.94;100326.25;7390817;19;20428;-64
2023/12/20 04:47:11;;;;;;;10.68;3.10;;;;;;;5.96;98.94;100317.91;7390581;19;20368;-64
2023/12/20 04:49:38;;;;;;;15.00;3.78;;;;;;;6.03;98.93;100319.75;7391367;19;20361;-64
2023/12/20 04:52:05;;;;;;;13.02;3.03;;;;;;;6.06;98.64;100308.94;7392205;19;20816;-64
2023/12/20 04:54:32;;;;;;;9.57;3.00;;;;;;;6.09;98.03;100323.59;7388219;19;20424;-64
2023/12/20 04:56:59;;;;;;;11.90;3.00;;;;;;;6.14;97.80;100316.03;7390539;19;20409;-64
2023/12/20 04:59:25;;;;;;;12.25;2.85;;;;;;;6.17;97.78;100314.94;7391198;19;20336;-64
2023/12/20 05:01:52;;;;;;;12.93;3.17;;;;;;;6.17;97.31;100321.00;7389457;19;20749;-64
2023/12/20 05:04:19;;;;;;;10.50;3.03;;;;;;;6.19;97.39;100318.22;7393093;19;20360;-64
2023/12/20 05:06:45;;;;;;;13.05;3.30;;;;;;;6.21;97.05;100321.53;7389955;19;20681;-64
2023/12/20 05:09:12;;;;;;;11.53;3.27;;;;;;;6.25;97.04;100318.44;7389781;19;20393;-64
2023/12/20 05:11:39;;;;;;;12.70;3.20;;;;;;;6.25;96.77;100314.97;7392267;19;20379;-64
2023/12/20 05:14:05;;;;;;;12.27;3.42;;;;;;;6.22;96.68;100318.72;7389889;19;20369;-64
2023/12/20 05:16:32;;;;;;;14.27;3.80;;;;;;;6.25;96.29;100307.06;7391300;19;20389;-63
2023/12/20 05:19:00;;;;;;;12.90;3.78;;;;;;;6.27;96.69;100336.72;7386830;19;20369;-63
2023/12/20 05:21:27;;;;;;;14.85;3.55;;;;;;;6.30;96.37;100304.78;7385863;19;20352;-64
2023/12/20 05:23:54;;;;;;;13.75;3.40;;;;;;;6.30;96.34;100315.31;7388411;19;20874;-63
2023/12/20 05:26:20;;;;;;;14.98;3.70;;;;;;;6.31;95.76;100319.59;7390443;19;20388;-63
2023/12/20 05:28:47;;;;;;;14.80;3.63;;;;;;;6.35;96.03;100297.22;7390332;19;20373;-63
2023/12/20 05:31:13;;;;;;;15.50;3.63;;;;;;;6.38;95.87;100323.28;7383486;19;20364;-63
2023/12/20 05:33:40;;;;;;;11.15;2.95;;;;;;;6.41;96.00;100309.78;7390683;19;20464;-63
2023/12/20 05:36:11;;;;;;;14.13;3.40;;;;;;;6.43;96.19;100305.16;7389234;19;20365;-63
2023/12/20 05:38:38;;;;;;;17.25;3.95;;;;;;;6.40;96.80;100318.66;7388510;19;20371;-65
2023/12/20 05:41:04;;;;;;;14.68;3.47;;;;;;;6.32;97.03;100294.91;7390777;19;20695;-66
2023/12/20 05:43:31;;;;;;;12.68;3.95;;;;;;;6.30;97.37;100310.06;7384200;19;20384;-66
2023/12/20 05:45:58;;;;;;;16.75;4.47;;;;;;;6.26;98.36;100319.25;7384127;19;20368;-66
2023/12/20 05:48:24;;;;;;;12.95;3.65;;;;;;;6.21;98.25;100301.28;7385902;19;20432;-65
2023/12/20 05:50:51;;;;;;;16.13;4.20;;;;;;;6.21;99.02;100295.19;7391131;19;20960;-65
2023/12/20 05:53:18;;;;;;;15.18;4.22;;;;;;;6.21;98.68;100303.91;7394434;19;20364;-65
2023/12/20 05:55:44;;;;;;;16.58;4.20;;;;;;;6.22;98.54;100313.47;7396894;19;20353;-65
2023/12/20 05:58:11;;;;;;;12.77;4.30;;;;;;;6.26;98.69;100306.06;7396017;19;20332;-65
2023/12/20 06:00:38;;;;;;;15.77;4.57;;;;;;;6.28;98.23;100293.56;7398497;19;20336;-65
2023/12/20 06:03:05;;;;;;;15.15;4.00;;;;;;;6.33;98.31;100304.47;7397591;19;20867;-65
2023/12/20 06:05:32;;;;;;;17.75;4.28;;;;;;;6.36;97.94;100304.16;7399058;19;20360;-65
2023/12/20 06:08:02;;;;;;;14.00;4.25;;;;;;;6.36;98.04;100293.63;7397981;19;20702;-65
2023/12/20 06:10:29;;;;;;;11.98;3.80;;;;;;;6.31;97.48;100311.69;7397420;19;20374;-64
2023/12/20 06:12:57;;;;;;;11.65;3.38;;;;;;;6.30;97.31;100315.31;7398027;19;20771;-65
2023/12/20 06:15:23;;;;;;;14.32;3.75;;;;;;;6.32;97.25;100297.56;7397574;19;20368;-64
2023/12/20 06:17:50;;;;;;;12.57;3.67;;;;;;;6.32;97.21;100302.81;7397033;19;20365;-65
2023/12/20 06:20:17;;;;;;;14.07;3.95;;;;;;;6.32;96.91;100292.28;7397050;19;20442;-64
2023/12/20 06:22:44;;;;;;;12.82;3.83;;;;;;;6.33;96.86;100299.19;7397273;19;20419;-64
2023/12/20 06:25:10;;;;;;;11.55;3.72;;;;;;;6.30;96.49;100295.06;7397844;19;20887;-64
2023/12/20 06:27:37;;;;;;;10.90;3.30;;;;;;;6.30;96.53;100294.25;7398487;19;20368;-64
2023/12/20 06:30:04;;;;;;;14.30;3.70;;;;;;;6.32;96.67;100287.00;7396184;19;20336;-64
2023/12/20 06:32:31;;;;;;;14.48;4.40;;;;;;;6.33;96.41;100300.03;7398719;19;20737;-64
2023/12/20 06:34:58;;;;;;;15.20;4.20;;;;;;;6.33;96.14;100317.63;7397078;19;20356;-64
2023/12/20 06:37:24;;;;;;;14.73;4.47;;;;;;;6.36;96.10;100304.16;7396110;19;20364;-63
2023/12/20 06:39:51;;;;;;;13.75;4.20;;;;;;;6.40;96.04;100300.22;7397098;19;20440;-64
2023/12/20 06:42:18;;;;;;;16.40;4.50;;;;;;;6.39;96.32;100306.47;7397983;19;20357;-64
2023/12/20 06:44:45;;;;;;;15.75;4.47;;;;;;;6.36;95.96;100287.53;7397177;19;20896;-63
2023/12/20 06:47:13;;;;;;;16.02;4.38;;;;;;;6.40;95.84;100284.44;7389442;19;20377;-64
2023/12/20 06:49:40;;;;;;;19.27;5.10;;;;;;;6.43;96.01;100299.91;7397601;19;20484;-64
2023/12/20 06:52:07;;;;;;;16.13;4.57;;;;;;;6.43;95.51;100305.16;7395551;19;20352;-63
2023/12/20 06:54:34;;;;;;;13.90;4.32;;;;;;;6.42;95.32;100293.00;7396813;19;20504;-63
2023/12/20 06:57:02;;;;;;;15.20;4.43;;;;;;;6.46;95.32;100280.31;7390262;19;21430;-64
2023/12/20 06:59:29;;;;;;;13.07;3.80;;;;;;;6.41;94.51;100285.25;7395413;19;20352;-63
2023/12/20 07:01:56;;;;;;;14.00;4.32;;;;;;;6.39;94.23;100292.47;7393943;19;20720;-63
2023/12/20 07:04:23;;;;;;;13.90;4.47;;;;;;;6.33;94.35;100283.38;7392708;19;20899;-63
2023/12/20 07:06:56;;;;;;;19.27;4.67;;;;;;;6.32;94.29;100287.84;7392383;19;20349;-65
2023/12/20 07:09:23;;;;;;;17.08;4.07;;;;;;;6.36;94.90;100282.28;7387958;19;20336;-60
2023/12/20 07:11:50;;;;;;;15.55;6.18;;;;;;;6.40;94.46;100279.16;7395519;19;20373;-62
2023/12/20 07:14:17;;;;;;;17.02;5.80;;;;;;;6.48;93.77;100281.81;7395557;19;20401;-61
2023/12/20 07:16:45;;;;;;;53.15;36.17;;;;;;;6.56;93.95;100278.38;7394345;19;20365;-61
2023/12/20 07:19:12;;;;;;;56.00;35.90;;;;;;;6.57;93.79;100295.00;7393701;19;20879;-62
2023/12/20 07:21:38;;;;;;;78.63;54.97;;;;;;;6.55;93.05;100278.56;7394829;19;20883;-60
2023/12/20 07:24:05;;;;;;;64.82;41.55;;;;;;;6.57;92.91;100287.94;7394185;19;20385;-63
2023/12/20 07:26:32;;;;;;;26.02;12.65;;;;;;;6.56;92.76;100285.47;7395421;19;20879;-61
2023/12/20 07:28:58;;;;;;;31.20;13.10;;;;;;;6.57;93.22;100266.03;7394840;19;20364;-62
2023/12/20 07:31:26;;;;;;;55.72;33.97;;;;;;;6.57;93.25;100263.38;7396158;19;20372;-61
2023/12/20 07:33:52;;;;;;;99.20;70.45;;;;;;;6.57;92.85;100284.47;7395904;19;20420;-62
2023/12/20 07:36:19;;;;;;;58.95;42.10;;;;;;;6.51;92.92;100273.59;7394580;19;20352;-61
2023/12/20 07:38:46;;;;;;;68.78;43.20;;;;;;;6.51;93.56;100294.66;7393229;19;20845;-60
2023/12/20 07:41:13;;;;;;;43.10;24.35;;;;;;;6.55;93.35;100297.00;7394349;19;20380;-60
2023/12/20 07:43:39;;;;;;;49.03;30.58;;;;;;;6.60;92.65;100292.06;7396210;19;20381;-61
2023/12/20 07:46:07;;;;;;;49.58;30.00;;;;;;;6.64;92.66;100290.78;7394521;19;20360;-62
2023/12/20 07:48:37;;;;;;;19.83;11.32;;;;;;;6.70;92.74;100290.97;7394477;19;20728;-62
2023/12/20 07:51:06;;;;;;;27.00;13.50;;;;;;;6.73;92.33;100284.53;7394700;19;20363;-62
2023/12/20 07:53:34;;;;;;;100.10;65.80;;;;;;;6.78;94.18;100286.69;7396000;19;20348;-62
2023/12/20 07:56:00;;;;;;;23.30;11.60;;;;;;;6.79;94.05;100283.09;7391204;19;20376;-63
2023/12/20 07:58:29;;;;;;;19.85;5.68;;;;;;;6.74;94.94;100291.47;7395018;19;20904;-62
2023/12/20 08:01:16;;;;;;;17.67;7.75;;;;;;;6.69;95.08;100285.84;7392690;19;20708;-63
2023/12/20 08:03:43;;;;;;;70.67;45.00;;;;;;;6.60;95.64;100286.81;7394391;19;20361;-63
2023/12/20 08:06:09;;;;;;;18.05;4.72;;;;;;;6.52;95.72;100300.75;7394641;19;20753;-68
2023/12/20 08:08:36;;;;;;;13.40;4.05;;;;;;;6.36;96.36;100288.34;7396287;19;20355;-68
2023/12/20 08:11:03;;;;;;;14.13;4.28;;;;;;;6.23;97.23;100282.69;7392499;19;20740;-68
2023/12/20 08:13:30;;;;;;;19.30;4.80;;;;;;;6.12;98.09;100281.97;7394571;19;20397;-68
2023/12/20 08:15:56;;;;;;;16.55;4.85;;;;;;;6.12;98.80;100287.25;7389958;19;20360;-69
2023/12/20 08:18:23;;;;;;;18.10;5.22;;;;;;;6.09;99.37;100277.00;7392257;19;20424;-69
2023/12/20 08:20:52;;;;;;;18.40;5.20;;;;;;;6.06;99.27;100287.88;7391755;19;20369;-68
2023/12/20 08:23:20;;;;;;;17.60;5.57;;;;;;;6.07;99.52;100275.53;7393310;19;20400;-68
2023/12/20 08:25:50;;;;;;;17.73;5.22;;;;;;;6.08;99.85;100296.44;7390972;19;20404;-68
2023/12/20 08:28:17;;;;;;;16.35;5.28;;;;;;;6.07;99.81;100275.53;7395079;19;20368;-68
2023/12/20 08:30:43;;;;;;;15.80;5.50;;;;;;;6.08;100.00;100262.19;7392495;19;20341;-69
2023/12/20 08:33:12;;;;;;;19.30;5.97;;;;;;;6.15;100.00;100269.47;7393847;19;20360;-69
2023/12/20 08:35:40;;;;;;;19.77;5.70;;;;;;;6.15;100.00;100264.22;7391657;19;20377;-68
2023/12/20 08:38:06;;;;;;;15.32;5.55;;;;;;;6.19;99.42;100255.03;7393522;19;20349;-69
2023/12/20 08:40:33;;;;;;;17.35;5.40;;;;;;;6.23;99.24;100264.25;7392652;19;20856;-68
2023/12/20 08:43:00;;;;;;;14.82;5.05;;;;;;;6.22;98.90;100302.09;7393318;19;20371;-68
2023/12/20 08:45:27;;;;;;;18.08;5.28;;;;;;;6.29;98.42;100242.53;7393813;19;20344;-68
2023/12/20 08:47:53;;;;;;;17.48;5.30;;;;;;;6.34;98.40;100245.53;7391435;19;20360;-68
2023/12/20 08:50:23;;;;;;;17.42;4.93;;;;;;;6.38;98.21;100244.22;7392819;19;20345;-68
2023/12/20 08:52:50;;;;;;;16.70;5.25;;;;;;;6.38;97.71;100222.34;7391334;19;20368;-67
2023/12/20 08:55:18;;;;;;;18.10;5.63;;;;;;;6.37;97.36;100225.94;7392476;19;20710;-67
2023/12/20 08:57:45;;;;;;;16.87;4.50;;;;;;;6.40;97.54;100230.91;7390914;19;20454;-67
2023/12/20 09:00:12;;;;;;;16.67;5.38;;;;;;;6.43;97.76;100233.22;7390962;19;20690;-67
2023/12/20 09:02:39;;;;;;;14.27;5.43;;;;;;;6.49;98.03;100229.94;7390987;19;20379;-66
2023/12/20 09:05:06;;;;;;;15.20;4.68;;;;;;;6.47;97.12;100240.63;7392885;19;20370;-66
2023/12/20 09:07:34;;;;;;;13.40;4.80;;;;;;;6.52;97.28;100222.56;7391114;19;20363;-66
2023/12/20 09:10:00;;;;;;;13.82;4.47;;;;;;;6.60;97.17;100223.56;7390703;19;20360;-66
2023/12/20 09:12:27;;;;;;;14.68;4.70;;;;;;;6.63;96.15;100225.84;7394012;19;20365;-65
2023/12/20 09:14:54;;;;;;;11.87;4.10;;;;;;;6.68;96.02;100219.13;7392079;19;20388;-65
2023/12/20 09:17:22;;;;;;;14.55;4.53;;;;;;;6.74;96.08;100212.41;7390620;19;20388;-65
2023/12/20 09:19:52;;;;;;;12.23;4.07;;;;;;;6.76;95.71;100202.50;7391015;19;20348;-65
2023/12/20 09:22:19;;;;;;;11.90;3.80;;;;;;;6.79;95.50;100193.44;7392056;19;20364;-65
2023/12/20 09:24:46;;;;;;;13.02;4.18;;;;;;;6.83;95.71;100195.59;7390813;19;20340;-64
2023/12/20 09:27:13;;;;;;;13.27;4.05;;;;;;;6.84;95.37;100186.72;7391248;19;20371;-64
2023/12/20 09:29:39;;;;;;;14.77;3.70;;;;;;;6.93;95.09;100229.72;7398764;19;20368;-64
2023/12/20 09:32:06;;;;;;;12.63;4.10;;;;;;;6.96;95.24;100207.47;7398005;19;20409;-65
2023/12/20 09:34:33;;;;;;;16.05;4.20;;;;;;;6.92;94.70;100202.50;7400444;19;20348;-64
2023/12/20 09:37:00;;;;;;;13.23;3.90;;;;;;;6.90;94.93;100220.31;7397478;19;20360;-64
2023/12/20 09:39:26;;;;;;;11.80;4.10;;;;;;;6.94;94.73;100187.34;7397609;19;20428;-64
2023/12/20 09:42:06;;;;;;;15.60;4.35;;;;;;;6.98;94.44;100187.03;7398573;19;20356;-64
2023/12/20 09:44:36;;;;;;;14.55;4.38;;;;;;;6.98;93.65;100208.13;7395365;19;20340;-65
2023/12/20 09:47:04;;;;;;;12.50;4.00;;;;;;;7.00;94.05;100192.97;7398609;19;20945;-64
2023/12/20 09:49:31;;;;;;;13.57;4.07;;;;;;;7.02;93.52;100189.19;7399935;19;20452;-64
2023/12/20 09:51:59;;;;;;;12.30;4.22;;;;;;;7.07;93.17;100188.69;7398882;19;20411;-64
2023/12/20 09:54:28;;;;;;;12.27;4.33;;;;;;;7.15;93.24;100183.41;7399700;19;20409;-64
2023/12/20 09:56:55;;;;;;;13.75;3.80;;;;;;;7.12;92.95;100181.13;7398326;19;20389;-64
2023/12/20 09:59:21;;;;;;;15.68;4.35;;;;;;;7.21;93.03;100181.94;7396821;19;20356;-64
2023/12/20 10:01:51;;;;;;;12.60;4.18;;;;;;;7.25;92.10;100177.97;7396869;19;20376;-65
2023/12/20 10:04:21;;;;;;;14.40;3.95;;;;;;;7.31;92.30;100167.59;7398417;19;20925;-65
2023/12/20 10:06:56;;;;;;;15.38;3.88;;;;;;;7.33;91.35;100162.13;7396957;19;20773;-64
2023/12/20 10:09:24;;;;;;;11.32;4.00;;;;;;;7.30;90.39;100157.19;7397049;19;20376;-64
2023/12/20 10:11:54;;;;;;;14.52;3.67;;;;;;;7.41;91.10;100156.03;7398801;19;20699;-64
2023/12/20 10:14:22;;;;;;;14.05;4.00;;;;;;;7.49;90.34;100177.94;7397913;19;20340;-65
2023/12/20 10:16:50;;;;;;;12.23;3.67;;;;;;;7.63;89.88;100160.59;7397458;19;20902;-64
2023/12/20 10:19:18;;;;;;;12.45;3.45;;;;;;;7.65;89.19;100148.06;7395443;19;20380;-64
2023/12/20 10:21:45;;;;;;;10.77;3.85;;;;;;;7.76;89.77;100160.06;7393900;19;20422;-64
2023/12/20 10:24:17;;;;;;;11.52;3.83;;;;;;;7.70;89.23;100169.47;7397325;19;20372;-64
2023/12/20 10:26:44;;;;;;;13.55;3.90;;;;;;;7.69;89.16;100159.94;7399080;19;20388;-65
2023/12/20 10:29:11;;;;;;;11.80;3.78;;;;;;;7.63;89.41;100160.59;7396835;19;20419;-63
2023/12/20 10:31:42;;;;;;;13.55;3.88;;;;;;;7.67;88.95;100151.34;7396812;19;20368;-64
2023/12/20 10:34:09;;;;;;;13.38;3.92;;;;;;;7.68;88.94;100137.16;7397391;19;20379;-64
2023/12/20 10:36:36;;;;;;;10.98;3.70;;;;;;;7.61;88.77;100198.69;7398281;19;20348;-64
2023/12/20 10:39:05;;;;;;;12.63;3.60;;;;;;;7.59;88.70;100159.28;7392818;19;20688;-64
2023/12/20 10:41:32;;;;;;;14.80;4.05;;;;;;;7.66;89.55;100133.84;7393587;19;21438;-64
2023/12/20 10:44:02;;;;;;;12.05;3.75;;;;;;;7.62;89.38;100143.09;7398404;19;20401;-65
2023/12/20 10:46:29;;;;;;;13.27;3.97;;;;;;;7.66;89.69;100131.22;7396957;19;20352;-63
2023/12/20 10:48:57;;;;;;;12.75;4.30;;;;;;;7.66;91.00;100122.47;7395371;19;20436;-65
2023/12/20 10:51:26;;;;;;;12.95;4.30;;;;;;;7.62;92.38;100129.09;7396001;19;20336;-67
2023/12/20 10:53:54;;;;;;;12.15;3.90;;;;;;;7.47;91.27;100113.94;7396024;19;20797;-67
2023/12/20 10:56:21;;;;;;;11.32;3.95;;;;;;;7.48;93.09;100135.88;7395823;19;20373;-67
2023/12/20 10:58:49;;;;;;;12.93;4.03;;;;;;;7.50;93.41;100128.59;7394817;19;20449;-67
2023/12/20 11:01:21;;;;;;;12.30;3.85;;;;;;;7.47;93.64;100131.59;7392579;19;20361;-67
2023/12/20 11:03:52;;;;;;;11.20;3.70;;;;;;;7.43;93.04;100139.03;7397206;19;20349;-67
2023/12/20 11:06:37;;;;;;;12.07;3.67;;;;;;;7.46;94.45;100122.03;7396693;19;21220;-67
2023/12/20 11:09:19;;;;;;;12.60;4.10;;;;;;;7.49;94.05;100116.41;7390594;19;20371;-68
2023/12/20 11:11:55;;;;;;;12.20;4.32;;;;;;;7.55;93.71;100108.66;7392764;19;20367;-67
2023/12/20 11:14:25;;;;;;;11.82;4.28;;;;;;;7.49;94.40;100108.50;7392141;19;20364;-67
2023/12/20 11:17:05;;;;;;;14.87;4.27;;;;;;;7.42;94.64;100108.38;7394654;19;20364;-67
2023/12/20 11:19:32;;;;;;;12.00;4.30;;;;;;;7.43;94.77;100117.09;7394171;19;20372;-66
2023/12/20 11:21:59;;;;;;;12.27;4.10;;;;;;;7.35;95.74;100163.63;7394179;19;20348;-67